Terminal Aerodrome Forecast
Issued by NWS

Home | Current Version | Previous Version | Text Only | Print | Product List | Glossary On
Versions: 1 2 3 4 5 6 7 8 9 10 11 12 13 14 15 16 17 18 19 20 21 22 23 24 25
000
FTUS42 KCAE 200500
TAFCUB
TAF
KCUB 200529Z 2006/2106 VRB03KT P6SM OVC150
     FM200900 00000KT P6SM -RA OVC060
     FM201200 VRB03KT 6SM -RA BR BKN025
     FM202200 04003KT P6SM BKN025=

USA.gov is the U.S. government's official web portal to all federal, state and local government web resources and services.